Time;durP1;ratioP1;P1;durP2;ratioP2;P2;SDS_P1;SDS_P2;PMS_P1;PMS_P2;Temp;Humidity;BMP_temperature;BMP_pressure;BME280_temperature;BME280_humidity;BME280_pressure;Samples;Min_cycle;Max_cycle;Signal;HPM_P1;HPM_P2
2023/12/14 00:00:15;;;;;;;0.90;0.90;;;;;;;;;;5008249;28;20026;-81
2023/12/14 00:02:40;;;;;;;0.95;0.90;;;;;;;;;;5001068;28;20034;-84
2023/12/14 00:05:06;;;;;;;1.00;1.00;;;;;;;;;;5008444;28;20022;-85
2023/12/14 00:07:31;;;;;;;1.98;1.48;;;;;;;;;;4997984;28;20525;-82
2023/12/14 00:09:57;;;;;;;1.00;1.00;;;;;;;;;;4994668;28;20438;-84
2023/12/14 00:12:22;;;;;;;1.10;1.02;;;;;;;;;;5004683;28;20556;-84
2023/12/14 00:14:48;;;;;;;1.15;1.15;;;;;;;;;;4994519;28;20021;-83
2023/12/14 00:17:13;;;;;;;1.30;1.20;;;;;;;;;;5008639;28;20092;-84
2023/12/14 00:19:38;;;;;;;1.30;1.20;;;;;;;;;;5010318;28;21034;-84
2023/12/14 00:22:03;;;;;;;1.48;1.30;;;;;;;;;;5012723;28;20038;-84
2023/12/14 00:24:29;;;;;;;1.02;1.02;;;;;;;;;;5002282;28;20030;-83
2023/12/14 00:26:54;;;;;;;3.60;1.33;;;;;;;;;;5007898;28;20038;-82
2023/12/14 00:29:19;;;;;;;1.15;1.05;;;;;;;;;;5002232;28;20034;-84
2023/12/14 00:31:44;;;;;;;1.60;1.30;;;;;;;;;;4995870;28;20038;-82
2023/12/14 00:34:10;;;;;;;3.95;1.67;;;;;;;;;;4997061;28;20101;-83
2023/12/14 00:36:35;;;;;;;2.88;1.30;;;;;;;;;;5009013;28;20048;-83
2023/12/14 00:39:00;;;;;;;2.42;1.40;;;;;;;;;;5013269;28;20042;-81
2023/12/14 00:41:25;;;;;;;2.45;1.20;;;;;;;;;;4997139;28;20061;-85
2023/12/14 00:43:51;;;;;;;2.00;1.10;;;;;;;;;;4998227;28;20031;-85
2023/12/14 00:46:16;;;;;;;4.13;1.50;;;;;;;;;;5004911;28;20034;-83
2023/12/14 00:48:41;;;;;;;1.20;1.10;;;;;;;;;;5003278;28;20076;-82
2023/12/14 00:51:06;;;;;;;1.55;1.00;;;;;;;;;;5012967;28;20022;-86
2023/12/14 00:53:32;;;;;;;1.15;1.15;;;;;;;;;;4996586;28;20032;-83
2023/12/14 00:55:57;;;;;;;1.30;1.30;;;;;;;;;;4996360;28;20042;-83
2023/12/14 00:58:22;;;;;;;1.30;1.20;;;;;;;;;;5000786;28;20053;-84
2023/12/14 01:00:48;;;;;;;1.50;1.40;;;;;;;;;;4998826;28;20073;-84
2023/12/14 01:03:13;;;;;;;1.35;1.10;;;;;;;;;;5004158;28;20022;-83
2023/12/14 01:05:39;;;;;;;1.40;1.30;;;;;;;;;;5003956;28;20014;-84
2023/12/14 01:08:04;;;;;;;1.92;1.40;;;;;;;;;;5007749;28;20121;-82
2023/12/14 01:10:29;;;;;;;1.30;1.20;;;;;;;;;;4989046;28;20030;-83
2023/12/14 01:12:55;;;;;;;1.35;1.27;;;;;;;;;;5003581;28;20030;-85
2023/12/14 01:15:20;;;;;;;1.25;1.15;;;;;;;;;;4990732;28;20021;-82
2023/12/14 01:17:45;;;;;;;1.17;1.10;;;;;;;;;;5015390;28;20049;-83
2023/12/14 01:20:11;;;;;;;1.85;1.05;;;;;;;;;;5005900;28;20028;-85
2023/12/14 01:22:36;;;;;;;2.22;1.20;;;;;;;;;;4982127;28;20037;-84
2023/12/14 01:25:02;;;;;;;2.42;1.40;;;;;;;;;;5005958;28;20049;-83
2023/12/14 01:27:27;;;;;;;1.27;1.20;;;;;;;;;;4996796;28;20046;-83
2023/12/14 01:29:52;;;;;;;1.30;1.20;;;;;;;;;;5005864;28;20034;-82
2023/12/14 01:32:17;;;;;;;2.35;1.05;;;;;;;;;;4995181;28;20482;-85
2023/12/14 01:34:43;;;;;;;1.35;1.25;;;;;;;;;;5010660;28;20458;-82
2023/12/14 01:37:08;;;;;;;4.05;1.23;;;;;;;;;;4992841;28;20354;-81
2023/12/14 01:39:33;;;;;;;1.23;1.10;;;;;;;;;;4995558;28;20081;-82
2023/12/14 01:41:58;;;;;;;1.20;1.10;;;;;;;;;;5004934;28;20029;-83
2023/12/14 01:44:24;;;;;;;0.90;0.90;;;;;;;;;;5002615;28;20026;-84
2023/12/14 01:46:49;;;;;;;1.38;1.23;;;;;;;;;;4993270;28;20040;-82
2023/12/14 01:49:15;;;;;;;1.55;1.20;;;;;;;;;;4988961;28;20037;-84
2023/12/14 01:51:40;;;;;;;1.13;1.02;;;;;;;;;;5014644;28;20121;-83
2023/12/14 01:54:05;;;;;;;1.00;1.00;;;;;;;;;;5007161;28;20053;-81
2023/12/14 01:56:31;;;;;;;1.95;1.05;;;;;;;;;;5005141;28;20037;-82
2023/12/14 01:58:56;;;;;;;4.10;1.58;;;;;;;;;;5004152;28;20042;-83
2023/12/14 02:01:37;;;;;;;1.23;1.13;;;;;;;;;;5006972;28;20042;-84
2023/12/14 02:04:04;;;;;;;1.20;1.20;;;;;;;;;;4995713;28;20042;-83
2023/12/14 02:06:29;;;;;;;1.15;1.15;;;;;;;;;;4991353;28;20122;-84
2023/12/14 02:08:54;;;;;;;1.63;1.33;;;;;;;;;;5013967;28;20093;-82
2023/12/14 02:11:19;;;;;;;1.55;1.45;;;;;;;;;;5013675;28;20095;-82
2023/12/14 02:13:45;;;;;;;1.55;1.45;;;;;;;;;;5003733;28;20073;-83
2023/12/14 02:16:10;;;;;;;1.40;1.30;;;;;;;;;;5006681;28;20137;-82
2023/12/14 02:18:37;;;;;;;1.65;1.27;;;;;;;;;;5005334;28;20052;-83
2023/12/14 02:21:02;;;;;;;1.33;1.23;;;;;;;;;;5013428;28;20057;-83
2023/12/14 02:23:28;;;;;;;1.42;1.27;;;;;;;;;;5013029;28;20056;-82
2023/12/14 02:25:53;;;;;;;2.75;1.15;;;;;;;;;;5003839;28;20038;-82
2023/12/14 02:28:18;;;;;;;1.08;1.08;;;;;;;;;;5013735;28;20126;-82
2023/12/14 02:30:44;;;;;;;0.90;0.90;;;;;;;;;;5012316;28;20053;-82
2023/12/14 02:33:09;;;;;;;3.70;0.90;;;;;;;;;;5004355;28;20023;-81
2023/12/14 02:35:34;;;;;;;1.20;1.10;;;;;;;;;;5006918;28;20022;-85
2023/12/14 02:37:59;;;;;;;1.10;1.00;;;;;;;;;;4988417;28;20134;-82
2023/12/14 02:40:25;;;;;;;1.83;1.00;;;;;;;;;;5006672;28;20489;-85
2023/12/14 02:42:50;;;;;;;1.30;1.20;;;;;;;;;;5014160;28;20398;-84
2023/12/14 02:45:15;;;;;;;4.47;1.10;;;;;;;;;;5004383;28;20049;-84
2023/12/14 02:47:41;;;;;;;1.10;1.10;;;;;;;;;;4985683;28;20475;-81
2023/12/14 02:50:06;;;;;;;0.80;0.80;;;;;;;;;;5005132;28;20132;-83
2023/12/14 02:52:31;;;;;;;1.77;1.15;;;;;;;;;;5006025;28;20034;-84
2023/12/14 02:54:57;;;;;;;0.90;0.80;;;;;;;;;;4996643;28;20045;-81
2023/12/14 02:57:22;;;;;;;0.90;0.90;;;;;;;;;;5001086;28;20058;-82
2023/12/14 02:59:47;;;;;;;1.42;0.90;;;;;;;;;;4993259;28;20026;-82
2023/12/14 03:02:13;;;;;;;1.17;0.88;;;;;;;;;;5002174;28;20058;-83
2023/12/14 03:04:41;;;;;;;1.15;0.60;;;;;;;;;;4988502;28;20027;-83
2023/12/14 03:07:06;;;;;;;0.70;0.70;;;;;;;;;;4987526;28;20402;-85
2023/12/14 03:09:33;;;;;;;1.00;0.90;;;;;;;;;;5003276;28;20178;-84
2023/12/14 03:12:00;;;;;;;0.80;0.80;;;;;;;;;;5013531;28;20026;-82
2023/12/14 03:14:25;;;;;;;0.57;0.57;;;;;;;;;;5013533;28;20521;-81
2023/12/14 03:16:51;;;;;;;0.57;0.50;;;;;;;;;;5002110;28;20043;-84
2023/12/14 03:19:16;;;;;;;0.60;0.60;;;;;;;;;;5008401;28;20043;-84
2023/12/14 03:21:42;;;;;;;0.60;0.60;;;;;;;;;;5016930;28;20030;-82
2023/12/14 03:24:09;;;;;;;0.60;0.60;;;;;;;;;;5008671;28;20105;-82
2023/12/14 03:26:34;;;;;;;0.77;0.77;;;;;;;;;;5006532;28;20100;-84
2023/12/14 03:28:59;;;;;;;0.93;0.70;;;;;;;;;;4998817;28;20064;-80
2023/12/14 03:31:25;;;;;;;1.20;0.90;;;;;;;;;;5007902;28;20026;-84
2023/12/14 03:33:50;;;;;;;0.80;0.80;;;;;;;;;;5006494;28;20509;-83
2023/12/14 03:36:15;;;;;;;1.10;0.90;;;;;;;;;;5008282;28;20027;-86
2023/12/14 03:38:40;;;;;;;0.93;0.93;;;;;;;;;;5008735;28;20030;-81
2023/12/14 03:41:06;;;;;;;0.70;0.70;;;;;;;;;;4991722;28;20116;-84
2023/12/14 03:43:31;;;;;;;0.63;0.63;;;;;;;;;;4983390;28;20034;-83
2023/12/14 03:45:56;;;;;;;0.95;0.77;;;;;;;;;;5006529;28;20046;-82
2023/12/14 03:48:21;;;;;;;3.22;0.80;;;;;;;;;;5047920;23;20068;-80
2023/12/14 03:50:47;;;;;;;1.05;1.00;;;;;;;;;;5041596;28;20526;-80
2023/12/14 03:53:12;;;;;;;0.90;0.90;;;;;;;;;;5036446;28;20124;-79
2023/12/14 03:55:37;;;;;;;0.90;0.90;;;;;;;;;;5053067;28;20112;-79
2023/12/14 03:58:02;;;;;;;0.82;0.80;;;;;;;;;;5041894;28;20032;-79
2023/12/14 04:00:28;;;;;;;1.85;0.82;;;;;;;;;;5051363;28;20041;-79
2023/12/14 04:02:53;;;;;;;1.02;1.02;;;;;;;;;;5054185;28;20028;-79
2023/12/14 04:05:18;;;;;;;1.00;1.00;;;;;;;;;;5045720;28;20507;-79
2023/12/14 04:07:43;;;;;;;1.48;0.80;;;;;;;;;;5046518;28;20068;-79
2023/12/14 04:10:10;;;;;;;1.10;1.00;;;;;;;;;;5039462;28;20049;-79
2023/12/14 04:12:36;;;;;;;0.90;0.90;;;;;;;;;;5052590;28;20037;-79
2023/12/14 04:15:02;;;;;;;1.20;1.10;;;;;;;;;;5041834;28;20180;-79
2023/12/14 04:17:28;;;;;;;1.00;1.00;;;;;;;;;;5035023;28;20039;-79
2023/12/14 04:19:53;;;;;;;1.75;1.20;;;;;;;;;;5052977;28;20029;-79
2023/12/14 04:22:18;;;;;;;1.45;1.10;;;;;;;;;;5051242;28;20060;-79
2023/12/14 04:24:44;;;;;;;1.00;1.00;;;;;;;;;;5046364;28;20044;-79
2023/12/14 04:27:09;;;;;;;2.10;0.85;;;;;;;;;;5049604;28;20036;-79
2023/12/14 04:29:34;;;;;;;0.95;0.95;;;;;;;;;;5042825;28;20120;-79
2023/12/14 04:32:00;;;;;;;3.92;1.33;;;;;;;;;;5041467;28;20034;-79
2023/12/14 04:34:25;;;;;;;2.40;1.27;;;;;;;;;;5047667;28;20041;-79
2023/12/14 04:36:50;;;;;;;1.13;1.02;;;;;;;;;;5052902;28;20037;-79
2023/12/14 04:39:16;;;;;;;1.60;1.50;;;;;;;;;;5038858;28;20029;-79
2023/12/14 04:41:42;;;;;;;2.25;1.55;;;;;;;;;;5047997;28;20017;-79
2023/12/14 04:44:07;;;;;;;1.88;1.45;;;;;;;;;;5041582;28;20496;-80
2023/12/14 04:46:33;;;;;;;4.82;1.67;;;;;;;;;;5047253;28;20033;-80
2023/12/14 04:48:58;;;;;;;1.90;1.80;;;;;;;;;;5049383;28;20037;-79
2023/12/14 04:51:23;;;;;;;2.00;1.88;;;;;;;;;;5050633;28;20044;-80
2023/12/14 04:53:48;;;;;;;2.30;1.67;;;;;;;;;;5046263;28;20500;-78
2023/12/14 04:56:14;;;;;;;2.05;1.85;;;;;;;;;;5032697;28;20053;-79
2023/12/14 04:58:39;;;;;;;3.15;2.10;;;;;;;;;;5050523;28;20067;-79
2023/12/14 05:01:05;;;;;;;2.65;2.22;;;;;;;;;;5049568;28;20439;-79
2023/12/14 05:03:30;;;;;;;4.05;2.90;;;;;;;;;;5050490;28;20116;-79
2023/12/14 05:05:56;;;;;;;2.60;2.35;;;;;;;;;;5044370;28;20107;-80
2023/12/14 05:08:21;;;;;;;3.88;2.78;;;;;;;;;;5045704;28;20087;-79
2023/12/14 05:10:47;;;;;;;3.72;2.70;;;;;;;;;;5043213;28;20436;-79
2023/12/14 05:13:12;;;;;;;3.10;2.78;;;;;;;;;;5050967;28;20056;-79
2023/12/14 05:15:37;;;;;;;3.90;2.97;;;;;;;;;;5050326;28;20353;-79
2023/12/14 05:18:03;;;;;;;5.65;3.13;;;;;;;;;;5047573;28;20029;-79
2023/12/14 05:20:28;;;;;;;3.17;2.80;;;;;;;;;;5047555;28;20044;-79
2023/12/14 05:22:53;;;;;;;2.58;2.15;;;;;;;;;;5048298;28;20324;-79
2023/12/14 05:25:18;;;;;;;5.07;2.60;;;;;;;;;;5046828;28;20078;-79
2023/12/14 05:27:44;;;;;;;2.47;2.20;;;;;;;;;;5051028;28;20048;-79
2023/12/14 05:30:09;;;;;;;2.20;2.05;;;;;;;;;;5047377;28;20021;-79
2023/12/14 05:32:35;;;;;;;2.45;2.25;;;;;;;;;;5020616;28;20029;-79
2023/12/14 05:35:00;;;;;;;2.10;2.00;;;;;;;;;;5049461;28;20052;-79
2023/12/14 05:37:25;;;;;;;2.40;2.00;;;;;;;;;;5045000;28;20443;-79
2023/12/14 05:39:50;;;;;;;2.03;1.88;;;;;;;;;;5036535;28;20037;-79
2023/12/14 05:42:17;;;;;;;2.83;1.95;;;;;;;;;;5045701;28;20191;-79
2023/12/14 05:44:44;;;;;;;8.90;1.77;;;;;;;;;;5051584;28;20448;-79
2023/12/14 05:47:09;;;;;;;1.70;1.60;;;;;;;;;;5046914;28;20044;-79
2023/12/14 05:49:35;;;;;;;1.80;1.70;;;;;;;;;;5046849;28;20033;-79
2023/12/14 05:52:00;;;;;;;1.58;1.48;;;;;;;;;;5046542;28;20045;-79
2023/12/14 05:54:25;;;;;;;1.17;1.17;;;;;;;;;;5051562;28;20385;-79
2023/12/14 05:56:51;;;;;;;3.08;1.70;;;;;;;;;;5045742;28;20381;-79
2023/12/14 05:59:16;;;;;;;2.55;1.20;;;;;;;;;;5043713;28;20044;-79
2023/12/14 06:01:42;;;;;;;3.38;1.67;;;;;;;;;;5041011;28;20137;-79
2023/12/14 06:04:08;;;;;;;1.70;1.60;;;;;;;;;;5043579;28;20159;-80
2023/12/14 06:06:33;;;;;;;4.47;1.40;;;;;;;;;;5042967;28;20101;-80
2023/12/14 06:08:59;;;;;;;1.77;1.55;;;;;;;;;;5048460;28;20029;-79
2023/12/14 06:11:24;;;;;;;1.40;1.30;;;;;;;;;;5046205;28;20037;-79
2023/12/14 06:13:49;;;;;;;1.60;1.50;;;;;;;;;;5039138;28;20044;-80
2023/12/14 06:16:14;;;;;;;1.40;1.30;;;;;;;;;;5050009;28;20047;-80
2023/12/14 06:18:43;;;;;;;1.38;1.17;;;;;;;;;;5045089;28;20098;-81
2023/12/14 06:21:10;;;;;;;1.60;1.50;;;;;;;;;;5048251;28;20043;-80
2023/12/14 06:23:36;;;;;;;1.30;1.30;;;;;;;;;;5052113;28;20029;-81
2023/12/14 06:26:03;;;;;;;0.95;0.95;;;;;;;;;;5047067;28;20596;-81
2023/12/14 06:28:30;;;;;;;1.00;1.00;;;;;;;;;;5052047;28;20040;-81
2023/12/14 06:30:55;;;;;;;1.60;1.50;;;;;;;;;;5046893;28;20547;-80
2023/12/14 06:33:21;;;;;;;1.27;1.17;;;;;;;;;;5051251;28;20032;-81
2023/12/14 06:35:46;;;;;;;1.05;1.05;;;;;;;;;;5050457;28;20403;-80
2023/12/14 06:38:12;;;;;;;1.13;1.13;;;;;;;;;;5051424;28;20037;-81
2023/12/14 06:40:37;;;;;;;0.95;0.95;;;;;;;;;;5052644;28;20039;-80
2023/12/14 06:43:05;;;;;;;0.90;0.90;;;;;;;;;;5046461;28;20033;-80
2023/12/14 06:45:30;;;;;;;1.27;1.27;;;;;;;;;;5054544;28;20033;-80
2023/12/14 06:47:55;;;;;;;1.38;1.27;;;;;;;;;;5050228;28;20089;-80
2023/12/14 06:50:20;;;;;;;1.20;1.20;;;;;;;;;;5053779;28;20098;-80
2023/12/14 06:52:45;;;;;;;0.93;0.93;;;;;;;;;;5050460;28;20029;-80
2023/12/14 06:55:11;;;;;;;1.02;1.02;;;;;;;;;;5054026;28;20100;-80
2023/12/14 06:57:37;;;;;;;1.10;1.10;;;;;;;;;;5039410;28;20041;-80
2023/12/14 07:00:02;;;;;;;1.20;1.20;;;;;;;;;;5053245;28;20564;-80
2023/12/14 07:02:27;;;;;;;1.20;1.20;;;;;;;;;;5053720;28;20052;-80
2023/12/14 07:04:52;;;;;;;1.48;1.20;;;;;;;;;;5053502;28;20057;-80
2023/12/14 07:07:18;;;;;;;1.35;1.25;;;;;;;;;;5044096;28;20035;-80
2023/12/14 07:09:46;;;;;;;1.40;1.30;;;;;;;;;;5049848;28;20046;-80
2023/12/14 07:12:11;;;;;;;1.65;1.55;;;;;;;;;;5054414;28;20059;-80
2023/12/14 07:14:36;;;;;;;1.80;1.50;;;;;;;;;;5052620;28;20028;-80
2023/12/14 07:17:02;;;;;;;1.33;1.27;;;;;;;;;;5049683;28;20168;-80
2023/12/14 07:19:27;;;;;;;1.27;1.20;;;;;;;;;;5050404;28;20107;-80
2023/12/14 07:21:53;;;;;;;1.30;1.20;;;;;;;;;;5050913;28;20041;-80
2023/12/14 07:24:18;;;;;;;1.27;1.17;;;;;;;;;;5052848;28;20052;-80
2023/12/14 07:26:43;;;;;;;2.25;1.95;;;;;;;;;;5051550;28;20067;-80
2023/12/14 07:29:09;;;;;;;1.60;1.50;;;;;;;;;;5032018;28;20282;-81
2023/12/14 07:31:34;;;;;;;1.15;1.08;;;;;;;;;;5048321;28;20036;-79
2023/12/14 07:33:59;;;;;;;1.00;1.00;;;;;;;;;;5030679;28;20505;-79
2023/12/14 07:36:25;;;;;;;1.30;1.20;;;;;;;;;;5047395;28;20036;-79
2023/12/14 07:38:50;;;;;;;1.23;1.13;;;;;;;;;;5044880;28;20036;-79
2023/12/14 07:41:15;;;;;;;1.25;1.20;;;;;;;;;;5050703;28;20048;-79
2023/12/14 07:43:40;;;;;;;1.48;1.38;;;;;;;;;;5046254;28;20052;-79
2023/12/14 07:46:06;;;;;;;1.42;1.33;;;;;;;;;;5048954;28;20029;-79
2023/12/14 07:48:31;;;;;;;1.88;1.15;;;;;;;;;;5046912;28;20214;-80
2023/12/14 07:50:56;;;;;;;1.60;1.50;;;;;;;;;;5037723;28;20025;-80
2023/12/14 07:53:21;;;;;;;1.20;1.20;;;;;;;;;;5042647;28;20575;-79
2023/12/14 07:55:47;;;;;;;1.60;1.50;;;;;;;;;;5044197;28;20056;-79
2023/12/14 07:58:13;;;;;;;2.13;1.90;;;;;;;;;;5024600;28;20037;-80
2023/12/14 08:00:38;;;;;;;1.30;1.30;;;;;;;;;;5040284;28;20132;-80
2023/12/14 08:03:03;;;;;;;1.88;1.73;;;;;;;;;;5045964;28;20483;-80
2023/12/14 08:05:28;;;;;;;1.70;1.60;;;;;;;;;;5048878;28;20079;-80
2023/12/14 08:07:54;;;;;;;1.80;1.70;;;;;;;;;;5049435;28;20516;-80
2023/12/14 08:10:19;;;;;;;1.60;1.50;;;;;;;;;;5051138;28;20451;-80
2023/12/14 08:12:44;;;;;;;2.63;1.90;;;;;;;;;;5051120;28;20128;-80
2023/12/14 08:15:10;;;;;;;3.25;1.80;;;;;;;;;;5054831;28;20032;-80
2023/12/14 08:17:35;;;;;;;2.38;1.45;;;;;;;;;;5052144;28;20089;-80
2023/12/14 08:20:01;;;;;;;1.70;1.38;;;;;;;;;;5050411;28;20060;-80
2023/12/14 08:22:26;;;;;;;1.70;1.60;;;;;;;;;;5048717;28;20413;-80
2023/12/14 08:24:51;;;;;;;2.15;1.40;;;;;;;;;;5043005;28;20044;-80
2023/12/14 08:27:16;;;;;;;2.20;1.45;;;;;;;;;;5044042;28;20021;-80
2023/12/14 08:29:43;;;;;;;1.70;1.60;;;;;;;;;;5052677;28;20048;-78
2023/12/14 08:32:08;;;;;;;1.63;1.52;;;;;;;;;;5051112;28;20489;-80
2023/12/14 08:34:33;;;;;;;1.60;1.50;;;;;;;;;;5048647;28;20037;-78
2023/12/14 08:37:00;;;;;;;1.17;1.13;;;;;;;;;;5041128;28;20033;-80
2023/12/14 08:39:26;;;;;;;2.35;1.10;;;;;;;;;;5043533;28;20039;-78
2023/12/14 08:41:51;;;;;;;1.27;1.27;;;;;;;;;;5042294;28;20776;-80
2023/12/14 08:44:17;;;;;;;1.30;1.23;;;;;;;;;;5047788;28;20034;-80
2023/12/14 08:46:44;;;;;;;1.25;1.17;;;;;;;;;;5029869;28;20033;-80
2023/12/14 08:49:11;;;;;;;0.90;0.90;;;;;;;;;;5024888;28;20465;-80
2023/12/14 08:51:38;;;;;;;2.33;1.00;;;;;;;;;;5043833;28;20045;-80
2023/12/14 08:54:04;;;;;;;1.30;1.20;;;;;;;;;;5040067;28;20040;-77
2023/12/14 08:56:29;;;;;;;0.80;0.80;;;;;;;;;;5047048;28;20469;-77
2023/12/14 08:58:54;;;;;;;2.53;0.85;;;;;;;;;;5045315;28;20053;-80
2023/12/14 09:01:21;;;;;;;0.90;0.90;;;;;;;;;;5048846;28;20033;-80
2023/12/14 09:03:46;;;;;;;1.00;1.00;;;;;;;;;;5050211;28;20168;-80
2023/12/14 09:06:12;;;;;;;1.13;1.02;;;;;;;;;;5051458;28;20059;-78
2023/12/14 09:08:37;;;;;;;1.25;1.15;;;;;;;;;;5046703;28;20048;-78
2023/12/14 09:11:03;;;;;;;3.28;1.00;;;;;;;;;;5050830;28;20698;-80
2023/12/14 09:13:29;;;;;;;1.15;1.10;;;;;;;;;;5052062;28;20096;-78
2023/12/14 09:15:54;;;;;;;4.47;1.30;;;;;;;;;;5049976;28;20120;-77
2023/12/14 09:18:20;;;;;;;1.55;1.45;;;;;;;;;;5049467;28;20013;-78
2023/12/14 09:20:46;;;;;;;1.40;1.30;;;;;;;;;;5050172;28;20036;-78
2023/12/14 09:23:11;;;;;;;1.55;1.40;;;;;;;;;;5050678;28;20504;-80
2023/12/14 09:25:36;;;;;;;1.65;1.40;;;;;;;;;;5049940;28;20025;-80
2023/12/14 09:28:02;;;;;;;1.38;1.23;;;;;;;;;;5051307;28;20025;-78
2023/12/14 09:30:27;;;;;;;1.38;1.27;;;;;;;;;;5052002;28;20056;-80
2023/12/14 09:32:53;;;;;;;1.30;1.20;;;;;;;;;;5033004;28;20131;-80
2023/12/14 09:35:18;;;;;;;2.67;1.60;;;;;;;;;;5050338;28;20028;-80
2023/12/14 09:37:43;;;;;;;1.50;1.40;;;;;;;;;;5035945;28;20063;-80
2023/12/14 09:40:10;;;;;;;1.55;1.45;;;;;;;;;;5051252;28;20041;-80
2023/12/14 09:42:38;;;;;;;1.73;1.60;;;;;;;;;;5054087;28;20029;-80
2023/12/14 09:45:04;;;;;;;1.60;1.50;;;;;;;;;;5051612;28;20017;-79
2023/12/14 09:47:29;;;;;;;1.58;1.48;;;;;;;;;;5065591;23;20044;-82
2023/12/14 09:49:54;;;;;;;1.50;1.40;;;;;;;;;;4976889;28;20057;-84
2023/12/14 09:52:20;;;;;;;2.13;1.33;;;;;;;;;;5000108;28;20036;-85
2023/12/14 09:54:45;;;;;;;1.50;1.40;;;;;;;;;;4999061;28;20030;-84
2023/12/14 09:57:10;;;;;;;2.45;1.55;;;;;;;;;;5006470;28;20033;-84
2023/12/14 09:59:37;;;;;;;1.60;1.50;;;;;;;;;;4974831;28;20054;-83
2023/12/14 10:02:13;;;;;;;1.67;1.33;;;;;;;;;;4981464;28;20675;-84
2023/12/14 10:04:38;;;;;;;2.53;1.40;;;;;;;;;;4987205;28;20486;-83
2023/12/14 10:07:06;;;;;;;1.30;1.30;;;;;;;;;;4977402;28;20026;-85
2023/12/14 10:09:33;;;;;;;1.30;1.20;;;;;;;;;;4975627;28;20402;-84
2023/12/14 10:12:05;;;;;;;1.48;1.38;;;;;;;;;;4975692;28;20023;-83
2023/12/14 10:14:30;;;;;;;1.17;1.10;;;;;;;;;;4974821;28;20046;-84
2023/12/14 10:16:55;;;;;;;1.20;1.20;;;;;;;;;;4987312;28;20046;-84
2023/12/14 10:19:21;;;;;;;1.13;1.08;;;;;;;;;;4966945;28;20559;-83
2023/12/14 10:21:49;;;;;;;1.40;1.30;;;;;;;;;;4992078;28;20042;-83
2023/12/14 10:24:15;;;;;;;0.90;0.90;;;;;;;;;;4987489;28;20461;-83
2023/12/14 10:26:40;;;;;;;0.77;0.77;;;;;;;;;;4973017;28;20023;-84
2023/12/14 10:29:06;;;;;;;1.15;1.13;;;;;;;;;;4975740;28;20042;-86
2023/12/14 10:31:31;;;;;;;1.10;1.10;;;;;;;;;;4965191;28;20034;-83
2023/12/14 10:33:57;;;;;;;1.00;1.00;;;;;;;;;;4993374;28;20125;-83
2023/12/14 10:36:25;;;;;;;1.20;1.10;;;;;;;;;;4984647;28;20122;-85
2023/12/14 10:38:53;;;;;;;0.65;0.65;;;;;;;;;;4992192;28;20023;-84
2023/12/14 10:41:21;;;;;;;0.70;0.70;;;;;;;;;;4978463;28;20138;-84
2023/12/14 10:43:48;;;;;;;1.45;1.00;;;;;;;;;;4981608;28;20039;-85
2023/12/14 10:46:14;;;;;;;0.63;0.63;;;;;;;;;;4979127;28;20132;-84
2023/12/14 10:48:43;;;;;;;0.60;0.60;;;;;;;;;;4980165;28;20567;-85
2023/12/14 10:51:12;;;;;;;0.50;0.50;;;;;;;;;;4981874;28;20022;-83
2023/12/14 10:53:37;;;;;;;0.50;0.50;;;;;;;;;;4989060;28;20072;-84
2023/12/14 10:56:10;;;;;;;0.52;0.50;;;;;;;;;;4995543;28;20057;-85
2023/12/14 10:58:56;;;;;;;0.52;0.43;;;;;;;;;;4979562;28;20031;-85
2023/12/14 11:01:27;;;;;;;0.50;0.50;;;;;;;;;;4982785;28;20037;-84
2023/12/14 11:03:56;;;;;;;0.63;0.63;;;;;;;;;;4998006;28;20409;-84
2023/12/14 11:06:24;;;;;;;0.70;0.70;;;;;;;;;;4995897;28;20109;-84
2023/12/14 11:08:54;;;;;;;0.40;0.40;;;;;;;;;;4984756;28;20073;-84
2023/12/14 11:11:20;;;;;;;13.27;0.68;;;;;;;;;;4966399;28;20033;-83
2023/12/14 11:13:53;;;;;;;0.57;0.57;;;;;;;;;;4980222;28;20043;-82
2023/12/14 11:16:22;;;;;;;3.95;0.90;;;;;;;;;;4958254;28;20035;-83
2023/12/14 11:18:48;;;;;;;0.60;0.60;;;;;;;;;;4975679;28;20086;-82
2023/12/14 11:21:24;;;;;;;0.60;0.60;;;;;;;;;;4980958;28;20031;-82
2023/12/14 11:23:50;;;;;;;0.60;0.60;;;;;;;;;;4980303;28;20035;-83
2023/12/14 11:26:22;;;;;;;0.93;0.90;;;;;;;;;;4978661;28;20054;-82
2023/12/14 11:28:48;;;;;;;0.68;0.68;;;;;;;;;;4978036;28;20042;-82
2023/12/14 11:31:13;;;;;;;0.82;0.82;;;;;;;;;;4981986;28;20522;-83
2023/12/14 11:33:39;;;;;;;0.80;0.80;;;;;;;;;;4980932;28;20039;-81
2023/12/14 11:36:05;;;;;;;1.05;1.05;;;;;;;;;;4979178;28;20074;-83
2023/12/14 11:38:31;;;;;;;1.13;1.13;;;;;;;;;;4982488;28;20031;-83
2023/12/14 11:40:57;;;;;;;1.00;1.00;;;;;;;;;;4981830;28;20043;-78
2023/12/14 11:43:24;;;;;;;1.38;1.27;;;;;;;;;;4979522;28;20482;-82
2023/12/14 11:45:50;;;;;;;1.20;1.20;;;;;;;;;;4977795;28;20031;-84
2023/12/14 11:48:16;;;;;;;1.23;1.20;;;;;;;;;;4972537;28;20033;-84
2023/12/14 11:50:43;;;;;;;1.30;1.30;;;;;;;;;;4974563;28;20034;-82
2023/12/14 11:53:09;;;;;;;1.13;1.13;;;;;;;;;;4977269;28;20442;-84
2023/12/14 11:55:35;;;;;;;3.65;1.20;;;;;;;;;;4977103;28;20038;-84
2023/12/14 11:58:01;;;;;;;1.40;1.30;;;;;;;;;;4977855;28;20051;-82
2023/12/14 12:00:28;;;;;;;1.40;1.30;;;;;;;;;;4980272;28;20097;-85
2023/12/14 12:03:14;;;;;;;1.00;1.00;;;;;;;;;;4964477;28;20086;-82
2023/12/14 12:05:45;;;;;;;0.90;0.90;;;;;;;;;;4970385;28;20034;-84
2023/12/14 12:08:12;;;;;;;1.25;1.15;;;;;;;;;;4971905;28;20162;-85
2023/12/14 12:10:38;;;;;;;1.98;0.98;;;;;;;;;;4981294;28;20039;-82
2023/12/14 12:13:11;;;;;;;0.93;0.93;;;;;;;;;;4973378;28;20070;-83
2023/12/14 12:15:37;;;;;;;1.88;1.13;;;;;;;;;;4977458;28;20042;-83
2023/12/14 12:18:05;;;;;;;0.63;0.63;;;;;;;;;;4974354;28;20121;-83
2023/12/14 12:20:30;;;;;;;0.80;0.80;;;;;;;;;;4970810;28;20039;-84
2023/12/14 12:22:56;;;;;;;9.38;1.30;;;;;;;;;;4974546;28;20058;-86
2023/12/14 12:25:22;;;;;;;1.10;1.00;;;;;;;;;;4971676;28;20082;-83
2023/12/14 12:27:48;;;;;;;1.23;1.05;;;;;;;;;;4975528;28;20074;-83
2023/12/14 12:30:14;;;;;;;1.10;1.10;;;;;;;;;;4976846;28;20346;-85
2023/12/14 12:32:40;;;;;;;2.78;0.80;;;;;;;;;;4977750;28;20069;-85
2023/12/14 12:35:06;;;;;;;1.10;1.10;;;;;;;;;;4976202;28;20063;-81
2023/12/14 12:37:31;;;;;;;98.15;3.58;;;;;;;;;;4983653;28;20026;-83
2023/12/14 12:39:56;;;;;;;1.10;1.10;;;;;;;;;;4965729;28;20069;-83
2023/12/14 12:42:22;;;;;;;1.10;1.00;;;;;;;;;;4982510;28;20371;-81
2023/12/14 12:44:47;;;;;;;5.57;1.10;;;;;;;;;;4961101;28;20026;-83
2023/12/14 12:47:13;;;;;;;1.45;1.13;;;;;;;;;;4977171;28;20425;-84
2023/12/14 12:49:38;;;;;;;1.00;1.00;;;;;;;;;;4977773;28;20121;-84
2023/12/14 12:52:10;;;;;;;1.05;1.02;;;;;;;;;;5061153;28;20397;-84
2023/12/14 12:54:36;;;;;;;1.10;1.10;;;;;;;;;;5045166;28;20033;-85
2023/12/14 12:57:01;;;;;;;0.80;0.80;;;;;;;;;;5039937;28;20490;-84
2023/12/14 12:59:26;;;;;;;0.88;0.88;;;;;;;;;;5024817;28;20044;-84
2023/12/14 13:01:53;;;;;;;1.55;1.10;;;;;;;;;;5042337;28;20029;-83
2023/12/14 13:04:19;;;;;;;0.98;0.98;;;;;;;;;;5031891;28;20189;-84
2023/12/14 13:06:47;;;;;;;1.10;1.10;;;;;;;;;;5036986;28;20102;-83
2023/12/14 13:09:12;;;;;;;1.02;1.02;;;;;;;;;;5036596;28;20477;-82
2023/12/14 13:11:37;;;;;;;1.30;1.23;;;;;;;;;;5038942;28;20025;-84
2023/12/14 13:14:07;;;;;;;0.93;0.93;;;;;;;;;;5036483;28;20101;-85
2023/12/14 13:16:34;;;;;;;1.42;1.33;;;;;;;;;;5036320;28;20065;-84
2023/12/14 13:18:59;;;;;;;1.80;1.30;;;;;;;;;;5034573;28;20374;-85
2023/12/14 13:21:24;;;;;;;1.17;1.10;;;;;;;;;;5015623;28;20096;-83
2023/12/14 13:23:50;;;;;;;1.20;1.10;;;;;;;;;;5041811;28;20412;-84
2023/12/14 13:26:16;;;;;;;1.42;1.20;;;;;;;;;;5038002;28;20520;-85
2023/12/14 13:28:41;;;;;;;1.67;1.58;;;;;;;;;;5030416;28;20038;-84
2023/12/14 13:31:07;;;;;;;2.58;1.95;;;;;;;;;;5033558;28;20464;-84
2023/12/14 13:33:32;;;;;;;1.65;1.55;;;;;;;;;;5037019;28;20030;-84
2023/12/14 13:35:58;;;;;;;2.00;1.90;;;;;;;;;;5034670;28;20240;-83
2023/12/14 13:38:23;;;;;;;2.67;2.10;;;;;;;;;;5038427;28;20041;-83
2023/12/14 13:40:49;;;;;;;2.28;1.83;;;;;;;;;;5038001;28;20034;-84
2023/12/14 13:43:14;;;;;;;1.98;1.88;;;;;;;;;;5041118;28;20575;-85
2023/12/14 13:45:41;;;;;;;2.38;2.10;;;;;;;;;;5038280;28;20100;-83
2023/12/14 13:48:07;;;;;;;3.67;2.03;;;;;;;;;;5032748;28;20033;-85
2023/12/14 13:50:32;;;;;;;1.83;1.63;;;;;;;;;;5022943;28;20035;-84
2023/12/14 13:52:57;;;;;;;2.10;1.63;;;;;;;;;;5044193;28;20033;-84
2023/12/14 13:55:23;;;;;;;1.70;1.60;;;;;;;;;;5037823;28;20137;-84
2023/12/14 13:57:48;;;;;;;2.17;1.95;;;;;;;;;;5046137;28;20029;-85
2023/12/14 14:00:14;;;;;;;1.98;1.77;;;;;;;;;;5038685;28;20393;-83
2023/12/14 14:02:40;;;;;;;3.33;2.22;;;;;;;;;;5027035;28;20029;-82
2023/12/14 14:05:05;;;;;;;1.85;1.75;;;;;;;;;;5008645;28;20040;-84
2023/12/14 14:07:31;;;;;;;3.50;1.63;;;;;;;;;;5025108;28;20571;-84
2023/12/14 14:09:56;;;;;;;2.20;2.00;;;;;;;;;;5027871;28;20117;-84
2023/12/14 14:12:22;;;;;;;1.80;1.70;;;;;;;;;;5025462;28;20030;-84
2023/12/14 14:14:47;;;;;;;1.80;1.70;;;;;;;;;;5024202;28;20103;-83
2023/12/14 14:17:13;;;;;;;1.85;1.75;;;;;;;;;;5022686;28;20038;-83
2023/12/14 14:19:38;;;;;;;4.50;1.92;;;;;;;;;;5022755;28;20045;-81
2023/12/14 14:22:04;;;;;;;1.98;1.83;;;;;;;;;;5009535;28;20505;-83
2023/12/14 14:24:29;;;;;;;2.47;2.17;;;;;;;;;;5029051;28;20154;-84
2023/12/14 14:26:55;;;;;;;3.15;1.90;;;;;;;;;;5023269;28;20026;-82
2023/12/14 14:29:20;;;;;;;2.13;2.00;;;;;;;;;;5009653;28;20362;-84
2023/12/14 14:31:45;;;;;;;2.83;2.25;;;;;;;;;;5020646;28;20037;-83
2023/12/14 14:34:11;;;;;;;4.07;2.33;;;;;;;;;;5026428;28;20045;-84